Time;durP1;ratioP1;P1;durP2;ratioP2;P2;SDS_P1;SDS_P2;PMS_P1;PMS_P2;Temp;Humidity;BMP_temperature;BMP_pressure;BME280_temperature;BME280_humidity;BME280_pressure;Samples;Min_cycle;Max_cycle;Signal;HPM_P1;HPM_P2
2022/06/10 00:01:19;;;;;;;2.63;1.17;;;16.00;66.30;;;;;;5049919;28;20052;-69
2022/06/10 00:03:45;;;;;;;1.90;1.25;;;16.10;66.20;;;;;;5048321;28;20025;-69
2022/06/10 00:06:12;;;;;;;4.30;1.25;;;16.10;66.10;;;;;;5048586;28;20051;-69
2022/06/10 00:08:41;;;;;;;3.38;1.38;;;16.10;66.00;;;;;;5049359;28;20440;-69
2022/06/10 00:11:08;;;;;;;5.28;1.38;;;16.20;65.80;;;;;;5047820;28;20029;-68
2022/06/10 00:13:37;;;;;;;2.83;1.40;;;16.20;65.70;;;;;;5046443;28;20029;-69
2022/06/10 00:16:03;;;;;;;4.28;1.52;;;16.20;65.60;;;;;;5050030;28;20028;-69
2022/06/10 00:18:30;;;;;;;3.83;1.58;;;16.20;65.70;;;;;;5050028;28;20028;-69
2022/06/10 00:20:57;;;;;;;2.90;1.30;;;16.20;65.70;;;;;;5049823;28;20017;-69
2022/06/10 00:23:23;;;;;;;2.83;1.30;;;16.10;65.80;;;;;;5048897;28;20037;-68
2022/06/10 00:25:48;;;;;;;4.20;1.60;;;16.00;66.00;;;;;;5048227;28;20032;-68
2022/06/10 00:28:14;;;;;;;3.33;1.63;;;16.00;66.30;;;;;;5048364;28;20487;-68
2022/06/10 00:30:40;;;;;;;2.55;1.40;;;15.90;67.10;;;;;;5047681;28;22145;-69
2022/06/10 00:33:06;;;;;;;2.95;1.50;;;15.90;66.50;;;;;;5046542;28;20090;-68
2022/06/10 00:35:32;;;;;;;4.22;1.52;;;15.90;66.40;;;;;;5047884;28;20082;-68
2022/06/10 00:37:58;;;;;;;4.13;1.45;;;15.90;66.50;;;;;;5048901;28;20039;-68
2022/06/10 00:40:30;;;;;;;3.97;1.50;;;15.90;66.60;;;;;;5051159;28;20025;-68
2022/06/10 00:42:57;;;;;;;2.78;1.35;;;15.90;66.70;;;;;;5048025;28;20029;-67
2022/06/10 00:46:00;;;;;;;4.07;1.42;;;15.80;66.80;;;;;;5048679;28;20021;-68
2022/06/10 00:48:31;;;;;;;4.38;1.65;;;15.80;67.00;;;;;;5046859;28;20092;-67
2022/06/10 00:51:00;;;;;;;4.35;1.70;;;15.70;67.00;;;;;;5048527;28;20017;-68
2022/06/10 00:53:33;;;;;;;2.72;1.33;;;15.70;67.00;;;;;;5046793;28;20135;-68
2022/06/10 00:56:00;;;;;;;3.78;1.63;;;15.70;67.20;;;;;;5048238;28;20122;-69
2022/06/10 00:58:37;;;;;;;2.33;1.52;;;15.60;67.30;;;;;;5047869;28;20659;-69
2022/06/10 01:01:03;;;;;;;4.72;1.40;;;15.60;67.30;;;;;;5038871;28;20251;-68
2022/06/10 01:03:30;;;;;;;2.80;1.50;;;15.60;67.50;;;;;;5046970;28;20052;-67
2022/06/10 01:05:55;;;;;;;3.90;1.30;;;15.60;67.60;;;;;;5046711;28;20113;-68
2022/06/10 01:08:22;;;;;;;3.60;1.58;;;15.50;67.60;;;;;;5044146;28;20535;-69
2022/06/10 01:11:02;;;;;;;4.68;1.65;;;15.50;67.80;;;;;;5043638;28;20022;-69
2022/06/10 01:13:53;;;;;;;4.13;1.40;;;15.40;67.80;;;;;;5047125;28;20025;-69
2022/06/10 01:16:39;;;;;;;4.65;1.40;;;15.50;68.00;;;;;;5034285;28;20040;-69
2022/06/10 01:19:43;;;;;;;3.33;1.40;;;15.40;68.00;;;;;;5045346;28;20055;-69
2022/06/10 01:22:17;;;;;;;4.30;1.75;;;15.40;68.10;;;;;;5047623;28;20028;-68
2022/06/10 01:25:30;;;;;;;15.15;7.65;;;15.40;68.20;;;;;;5048752;28;20056;-67
2022/06/10 01:28:16;;;;;;;7.35;4.07;;;15.30;68.20;;;;;;5047187;28;20158;-67
2022/06/10 01:30:59;;;;;;;4.35;2.40;;;15.30;68.50;;;;;;5051012;28;20043;-67
2022/06/10 01:33:43;;;;;;;;;;;15.30;68.60;;;;;;5051750;28;20382;-69
2022/06/10 01:36:26;;;;;;;2.75;1.75;;;15.30;68.50;;;;;;5057224;28;19962;-69
2022/06/10 01:39:03;;;;;;;;;;;15.20;68.70;;;;;;5053053;28;20033;-70
2022/06/10 01:41:51;;;;;;;2.33;1.42;;;15.30;68.50;;;;;;5047015;28;20011;-70
2022/06/10 01:44:38;;;;;;;2.75;1.60;;;15.30;68.50;;;;;;5048497;28;20048;-70
2022/06/10 01:47:20;;;;;;;3.53;1.70;;;15.30;68.50;;;;;;5054246;28;20090;-70
2022/06/10 01:49:52;;;;;;;4.35;1.73;;;15.30;68.50;;;;;;5050950;28;20044;-70
2022/06/10 01:52:24;;;;;;;3.47;1.73;;;15.30;68.60;;;;;;5050547;28;20024;-70
2022/06/10 01:54:49;;;;;;;;;;;15.20;68.70;;;;;;5051038;28;20040;-70
2022/06/10 01:57:37;;;;;;;5.03;1.98;;;15.20;68.50;;;;;;5049508;28;19927;-69
2022/06/10 02:00:29;;;;;;;4.22;2.00;;;15.20;68.80;;;;;;5060679;28;20450;-67
2022/06/10 02:03:01;;;;;;;;;;;15.10;69.00;;;;;;5048586;28;20056;-69
2022/06/10 02:05:31;;;;;;;7.32;4.50;;;15.10;68.80;;;;;;5051031;28;19919;-69
2022/06/10 02:08:07;;;;;;;6.22;2.97;;;15.10;69.10;;;;;;5050890;28;20070;-69
2022/06/10 02:10:37;;;;;;;3.90;2.17;;;15.10;69.30;;;;;;5047536;28;20436;-70
2022/06/10 02:13:15;;;;;;;6.07;2.38;;;15.10;69.50;;;;;;5050563;28;20123;-70
2022/06/10 02:15:47;;;;;;;4.55;1.92;;;15.00;69.70;;;;;;5047191;28;20059;-69
2022/06/10 02:18:17;;;;;;;4.40;2.25;;;15.00;69.70;;;;;;5059545;28;20029;-69
2022/06/10 02:20:49;;;;;;;4.97;2.00;;;15.10;69.60;;;;;;5049299;28;20040;-69
2022/06/10 02:23:21;;;;;;;5.00;2.00;;;15.10;69.50;;;;;;5051857;28;20090;-69
2022/06/10 02:25:51;;;;;;;5.20;1.90;;;15.10;69.60;;;;;;5046970;28;20066;-69
2022/06/10 02:28:24;;;;;;;5.43;2.10;;;15.10;69.60;;;;;;5051935;28;20025;-68
2022/06/10 02:30:58;;;;;;;4.65;2.00;;;15.10;70.30;;;;;;5049048;28;20029;-70
2022/06/10 02:33:24;;;;;;;5.28;1.90;;;15.10;70.30;;;;;;5050926;28;20031;-70
2022/06/10 02:35:59;;;;;;;5.47;2.10;;;15.20;69.60;;;;;;5047506;28;20037;-70
2022/06/10 02:39:12;;;;;;;5.38;2.08;;;15.20;69.70;;;;;;5075502;28;20022;-70
2022/06/10 02:41:49;;;;;;;4.68;2.13;;;15.30;69.60;;;;;;5047038;28;20074;-70
2022/06/10 02:44:38;;;;;;;4.13;2.00;;;15.20;69.70;;;;;;5064262;28;20044;-71
2022/06/10 02:47:13;;;;;;;6.40;2.55;;;15.30;69.70;;;;;;5047220;28;20090;-70
2022/06/10 02:49:40;;;;;;;5.82;2.20;;;15.30;69.80;;;;;;5050347;28;20637;-70
2022/06/10 02:52:08;;;;;;;4.80;2.20;;;15.30;69.80;;;;;;5051009;28;20028;-70
2022/06/10 02:54:36;;;;;;;8.80;2.38;;;15.30;69.80;;;;;;5046844;28;20499;-70
2022/06/10 02:57:10;;;;;;;5.57;2.08;;;15.30;69.90;;;;;;5049745;28;20017;-70
2022/06/10 03:02:28;;;;;;;6.38;2.75;;;15.30;70.20;;;;;;5050115;28;20036;-70
2022/06/10 03:05:01;;;;;;;5.53;2.63;;;15.30;70.40;;;;;;5048559;28;20029;-69
2022/06/10 03:07:43;;;;;;;7.75;2.35;;;15.30;70.60;;;;;;5049370;28;20047;-70
2022/06/10 03:10:32;;;;;;;4.50;2.10;;;15.30;70.60;;;;;;5047801;28;20028;-70
2022/06/10 03:13:17;;;;;;;6.47;2.35;;;15.30;70.50;;;;;;5044237;28;20031;-69
2022/06/10 03:16:18;;;;;;;6.72;1.95;;;15.40;70.50;;;;;;5047258;28;20029;-69
2022/06/10 03:18:44;;;;;;;4.95;1.80;;;15.40;70.40;;;;;;5052168;28;20083;-68
2022/06/10 03:21:27;;;;;;;4.85;2.33;;;15.40;70.30;;;;;;5046518;28;20028;-68
2022/06/10 03:24:18;;;;;;;6.35;2.28;;;15.50;70.40;;;;;;5047348;28;20044;-69
2022/06/10 03:27:26;;;;;;;6.13;2.35;;;15.50;70.40;;;;;;5048681;28;20100;-68
2022/06/10 03:30:02;;;;;;;5.63;1.90;;;15.60;70.40;;;;;;5047913;28;20082;-68
2022/06/10 03:32:37;;;;;;;6.13;2.30;;;15.60;70.20;;;;;;5043156;28;20013;-67
2022/06/10 03:35:11;;;;;;;5.22;2.20;;;15.60;70.30;;;;;;5040701;28;20029;-67
2022/06/10 03:37:39;;;;;;;7.10;2.97;;;15.70;70.50;;;;;;5051005;28;20044;-67
2022/06/10 03:40:05;;;;;;;5.43;2.30;;;15.60;70.60;;;;;;5078128;28;20051;-68
2022/06/10 03:42:31;;;;;;;4.88;2.28;;;15.70;70.70;;;;;;5049129;28;20025;-67
2022/06/10 03:44:58;;;;;;;6.47;2.60;;;15.70;70.80;;;;;;5047902;28;20035;-68
2022/06/10 03:47:31;;;;;;;5.55;2.13;;;15.70;70.90;;;;;;5052018;28;20028;-68
2022/06/10 03:50:03;;;;;;;7.03;2.47;;;15.60;71.00;;;;;;5048720;28;20124;-69
2022/06/10 03:52:32;;;;;;;5.50;2.05;;;15.60;71.00;;;;;;5046733;28;20025;-69
2022/06/10 03:54:57;;;;;;;5.95;2.10;;;15.70;71.00;;;;;;5045865;28;20506;-69
2022/06/10 03:57:23;;;;;;;4.47;2.08;;;15.70;70.90;;;;;;5043647;28;20025;-69
2022/06/10 03:59:49;;;;;;;3.95;1.98;;;15.70;71.00;;;;;;5047140;28;20047;-70
2022/06/10 04:02:15;;;;;;;6.90;2.28;;;15.80;71.00;;;;;;5046908;28;20037;-69
2022/06/10 04:04:45;;;;;;;5.60;1.80;;;15.80;71.00;;;;;;5046999;28;20032;-69
2022/06/10 04:07:14;;;;;;;4.70;2.10;;;15.80;71.20;;;;;;5048131;28;20021;-69
2022/06/10 04:09:40;;;;;;;5.47;2.13;;;15.80;71.50;;;;;;5047233;28;20491;-69
2022/06/10 04:12:06;;;;;;;4.72;2.10;;;15.80;71.80;;;;;;5045448;28;20498;-70
2022/06/10 04:14:32;;;;;;;9.18;2.45;;;15.80;72.10;;;;;;5046609;28;20041;-69
2022/06/10 04:16:58;;;;;;;7.43;2.30;;;15.70;72.70;;;;;;5048442;28;20091;-70
2022/06/10 04:19:24;;;;;;;8.15;2.33;;;15.70;73.10;;;;;;5051536;28;20433;-71
2022/06/10 04:21:49;;;;;;;5.25;1.90;;;15.70;73.50;;;;;;5046171;28;20134;-70
2022/06/10 04:24:15;;;;;;;9.30;2.15;;;15.60;73.70;;;;;;5048672;28;20063;-70
2022/06/10 04:26:41;;;;;;;3.83;1.80;;;15.60;74.00;;;;;;5047806;28;20029;-70
2022/06/10 04:29:07;;;;;;;5.63;1.83;;;15.70;74.00;;;;;;5049229;28;20028;-69
2022/06/10 04:31:33;;;;;;;4.40;1.95;;;15.70;74.00;;;;;;5044079;28;20021;-69
2022/06/10 04:33:59;;;;;;;4.57;2.15;;;15.70;74.00;;;;;;5047324;28;20039;-70
2022/06/10 04:36:24;;;;;;;6.20;2.47;;;15.80;74.40;;;;;;5047657;28;20025;-70
2022/06/10 04:38:50;;;;;;;9.32;2.55;;;15.70;75.20;;;;;;5048687;28;20036;-70
2022/06/10 04:41:16;;;;;;;5.35;2.10;;;15.70;76.10;;;;;;5048821;28;20044;-69
2022/06/10 04:43:42;;;;;;;5.03;2.10;;;15.70;76.60;;;;;;5046772;28;20040;-69
2022/06/10 04:46:12;;;;;;;5.80;2.10;;;15.60;76.60;;;;;;5046890;28;20029;-69
2022/06/10 04:48:38;;;;;;;7.32;2.40;;;15.70;76.90;;;;;;5047639;28;20051;-70
2022/06/10 04:51:03;;;;;;;6.78;2.30;;;15.70;77.20;;;;;;5047949;28;20029;-70
2022/06/10 04:53:29;;;;;;;7.25;2.00;;;15.70;77.00;;;;;;5046960;28;20025;-70
2022/06/10 04:55:55;;;;;;;5.43;1.90;;;15.70;77.20;;;;;;5048940;28;20021;-70
2022/06/10 04:58:20;;;;;;;3.05;1.63;;;15.70;77.20;;;;;;5048722;28;20032;-70
2022/06/10 05:00:48;;;;;;;6.88;2.15;;;15.70;77.20;;;;;;5043683;28;20032;-70
2022/06/10 05:03:15;;;;;;;7.40;2.88;;;15.70;77.50;;;;;;5047320;28;20052;-70
2022/06/10 05:05:41;;;;;;;6.90;2.30;;;15.70;78.90;;;;;;5046841;28;20047;-69
2022/06/10 05:08:10;;;;;;;5.03;2.30;;;15.60;79.60;;;;;;5045986;28;20414;-69
2022/06/10 05:10:36;;;;;;;5.78;2.38;;;15.60;79.70;;;;;;5045460;28;20479;-69
2022/06/10 05:13:02;;;;;;;4.10;1.80;;;15.60;80.00;;;;;;5041293;28;20029;-71
2022/06/10 05:15:28;;;;;;;5.28;2.50;;;15.70;79.90;;;;;;5048415;28;20021;-69
2022/06/10 05:17:57;;;;;;;5.32;2.25;;;15.70;80.20;;;;;;5052379;28;20032;-69
2022/06/10 05:20:28;;;;;;;5.78;2.00;;;15.70;80.40;;;;;;5046768;28;20074;-70
2022/06/10 05:22:54;;;;;;;5.18;1.77;;;15.80;80.30;;;;;;5047819;28;20035;-70
2022/06/10 05:25:20;;;;;;;6.10;2.08;;;15.90;79.80;;;;;;5045112;28;20544;-71
2022/06/10 05:27:46;;;;;;;5.22;2.15;;;16.00;79.60;;;;;;5048344;28;20025;-69
2022/06/10 05:30:17;;;;;;;5.00;2.25;;;16.10;79.70;;;;;;5045301;28;20029;-69
2022/06/10 05:32:42;;;;;;;4.25;2.00;;;16.20;79.50;;;;;;5046066;28;20025;-70
2022/06/10 05:35:08;;;;;;;4.53;2.10;;;16.30;79.30;;;;;;5051252;28;20078;-70
2022/06/10 05:37:34;;;;;;;6.50;2.55;;;16.40;79.10;;;;;;5062059;28;20041;-71
2022/06/10 05:40:00;;;;;;;4.25;2.38;;;16.50;78.90;;;;;;5042426;28;20475;-69
2022/06/10 05:42:26;;;;;;;6.18;2.42;;;16.50;78.80;;;;;;5047814;28;20028;-70
2022/06/10 05:44:52;;;;;;;5.93;2.13;;;16.50;78.60;;;;;;5046112;28;20852;-69
2022/06/10 05:47:27;;;;;;;4.90;1.83;;;16.60;78.80;;;;;;5048980;28;20510;-69
2022/06/10 05:49:56;;;;;;;4.57;1.83;;;16.60;78.70;;;;;;5043365;28;20029;-70
2022/06/10 05:52:25;;;;;;;6.43;2.67;;;16.70;78.60;;;;;;5044749;28;20047;-69
2022/06/10 05:54:53;;;;;;;6.25;3.13;;;16.80;78.50;;;;;;5047572;28;20036;-69
2022/06/10 05:57:19;;;;;;;6.13;2.53;;;16.80;78.80;;;;;;5047626;28;20029;-70
2022/06/10 05:59:47;;;;;;;5.53;2.50;;;16.70;78.90;;;;;;5044662;28;20043;-69
2022/06/10 06:02:14;;;;;;;4.63;2.30;;;16.80;78.90;;;;;;5046791;28;20526;-67
2022/06/10 06:04:41;;;;;;;7.00;2.60;;;16.80;78.70;;;;;;5043845;28;20037;-68
2022/06/10 06:07:07;;;;;;;6.60;2.67;;;16.90;78.70;;;;;;5049273;28;20029;-68
2022/06/10 06:09:34;;;;;;;4.50;2.30;;;16.90;79.00;;;;;;5045817;28;20108;-70
2022/06/10 06:11:59;;;;;;;5.60;2.30;;;16.90;78.80;;;;;;5047714;28;20017;-68
2022/06/10 06:14:27;;;;;;;3.88;1.95;;;17.00;78.60;;;;;;5053136;28;20028;-70
2022/06/10 06:16:58;;;;;;;4.97;2.30;;;17.10;78.30;;;;;;5050192;28;20029;-68
2022/06/10 06:19:26;;;;;;;4.70;2.22;;;17.20;78.30;;;;;;5051126;28;20025;-67
2022/06/10 06:21:52;;;;;;;5.03;2.00;;;17.20;78.20;;;;;;5051144;28;20025;-68
2022/06/10 06:24:18;;;;;;;3.15;1.90;;;17.20;78.10;;;;;;5051702;28;20727;-69
2022/06/10 06:26:43;;;;;;;7.20;3.00;;;17.40;77.90;;;;;;5050669;28;20066;-67
2022/06/10 06:29:09;;;;;;;5.85;2.60;;;17.50;77.80;;;;;;5051784;28;20020;-67
2022/06/10 06:31:35;;;;;;;8.07;2.90;;;17.70;77.50;;;;;;5049715;28;20428;-68
2022/06/10 06:34:00;;;;;;;6.32;2.67;;;17.90;77.20;;;;;;5052917;28;20032;-69
2022/06/10 06:36:27;;;;;;;7.25;3.03;;;18.00;76.60;;;;;;5050125;28;20040;-68
2022/06/10 06:38:54;;;;;;;8.15;2.58;;;18.10;76.10;;;;;;5051452;28;20035;-68
2022/06/10 06:41:21;;;;;;;7.13;2.60;;;18.10;75.90;;;;;;5053663;28;20021;-67
2022/06/10 06:43:47;;;;;;;5.32;2.38;;;18.10;75.60;;;;;;5042527;28;20025;-68
2022/06/10 06:46:16;;;;;;;5.78;2.35;;;18.10;75.50;;;;;;5050056;28;20025;-69
2022/06/10 06:48:43;;;;;;;5.20;2.50;;;18.20;75.50;;;;;;5051246;28;20131;-67
2022/06/10 06:51:09;;;;;;;8.85;3.28;;;18.10;75.40;;;;;;5051201;28;20009;-68
2022/06/10 06:53:36;;;;;;;9.70;3.08;;;18.20;75.20;;;;;;5049119;28;20151;-69
2022/06/10 06:56:03;;;;;;;4.55;2.10;;;18.10;75.20;;;;;;5049000;28;20071;-69
2022/06/10 06:58:29;;;;;;;6.13;2.25;;;18.20;75.20;;;;;;5057086;28;20668;-68
2022/06/10 07:00:55;;;;;;;6.47;3.00;;;18.20;75.00;;;;;;5059139;28;20029;-68
2022/06/10 07:03:21;;;;;;;6.22;2.65;;;18.30;74.90;;;;;;5049751;28;20569;-67
2022/06/10 07:05:47;;;;;;;7.07;2.92;;;18.20;74.70;;;;;;5049061;28;20059;-68
2022/06/10 07:08:13;;;;;;;7.82;2.75;;;18.20;74.50;;;;;;5049251;28;20025;-69
2022/06/10 07:10:38;;;;;;;6.50;2.55;;;18.20;74.50;;;;;;5050424;28;20047;-70
2022/06/10 07:13:04;;;;;;;5.78;2.28;;;18.20;74.30;;;;;;5048062;28;20494;-69
2022/06/10 07:15:30;;;;;;;6.20;2.47;;;18.30;74.10;;;;;;5048605;28;20031;-70
2022/06/10 07:17:57;;;;;;;7.30;2.40;;;18.40;73.90;;;;;;5047857;28;20023;-69
2022/06/10 07:20:34;;;;;;;6.57;2.60;;;18.40;73.70;;;;;;5049135;28;20021;-69
2022/06/10 07:23:00;;;;;;;10.63;3.45;;;18.40;73.50;;;;;;5047482;28;20052;-70
2022/06/10 07:25:27;;;;;;;7.90;2.80;;;18.40;73.30;;;;;;5047187;28;20017;-69
2022/06/10 07:27:55;;;;;;;8.27;3.50;;;18.30;73.40;;;;;;5046924;28;20041;-69
2022/06/10 07:30:23;;;;;;;5.78;2.80;;;18.30;73.40;;;;;;5049295;28;20506;-69
2022/06/10 07:32:49;;;;;;;7.82;2.88;;;18.30;73.50;;;;;;5048579;28;20047;-69
2022/06/10 07:35:15;;;;;;;5.28;2.42;;;18.30;73.60;;;;;;5047164;28;20021;-68
2022/06/10 07:37:41;;;;;;;5.82;2.20;;;18.30;73.60;;;;;;5049625;28;20047;-68
2022/06/10 07:40:07;;;;;;;4.80;2.00;;;18.30;73.50;;;;;;5047332;28;20040;-70
2022/06/10 07:42:34;;;;;;;6.13;2.42;;;18.40;73.40;;;;;;5048500;28;20033;-69
2022/06/10 07:45:02;;;;;;;4.05;2.10;;;18.50;73.30;;;;;;5046919;28;20017;-71
2022/06/10 07:47:28;;;;;;;4.47;1.80;;;18.50;73.20;;;;;;5046046;28;20029;-70
2022/06/10 07:49:53;;;;;;;4.18;2.05;;;18.60;73.00;;;;;;5043829;28;20056;-69
2022/06/10 07:52:19;;;;;;;3.97;1.85;;;18.70;72.90;;;;;;5042668;28;20071;-69
2022/06/10 07:54:45;;;;;;;4.50;1.83;;;18.90;72.70;;;;;;5046557;28;20020;-69
2022/06/10 07:57:13;;;;;;;3.53;1.58;;;19.00;72.40;;;;;;5049657;28;20498;-69
2022/06/10 07:59:42;;;;;;;4.82;1.60;;;19.10;72.10;;;;;;5047564;28;20111;-69
2022/06/10 08:02:09;;;;;;;6.32;1.90;;;19.20;71.80;;;;;;5046949;28;20029;-69
2022/06/10 08:04:34;;;;;;;5.95;2.33;;;19.40;71.50;;;;;;5047262;28;20032;-69
2022/06/10 08:07:00;;;;;;;2.47;1.48;;;19.60;70.80;;;;;;5047271;28;20379;-69
2022/06/10 08:09:26;;;;;;;7.20;2.45;;;19.70;70.20;;;;;;5052870;28;20017;-69
2022/06/10 08:11:52;;;;;;;4.13;1.70;;;20.00;69.70;;;;;;5048296;28;20431;-69
2022/06/10 08:14:18;;;;;;;5.15;1.92;;;20.30;69.30;;;;;;5052763;28;20025;-69
2022/06/10 08:16:44;;;;;;;6.22;2.10;;;20.60;68.40;;;;;;5048356;28;20036;-69
2022/06/10 08:19:09;;;;;;;6.47;2.20;;;20.70;66.90;;;;;;5045791;28;20414;-68
2022/06/10 08:24:20;;;;;;;9.90;2.25;;;20.80;65.90;;;;;;5043262;28;20503;-70
2022/06/10 08:26:47;;;;;;;6.57;1.60;;;21.00;65.30;;;;;;5037171;28;20491;-69
2022/06/10 08:29:13;;;;;;;7.43;2.03;;;21.00;65.10;;;;;;5043026;28;20021;-69
2022/06/10 08:31:38;;;;;;;4.00;1.40;;;21.00;64.40;;;;;;5047559;28;20021;-70
2022/06/10 08:34:04;;;;;;;4.25;1.60;;;21.00;64.40;;;;;;5046368;28;20025;-69
2022/06/10 08:36:31;;;;;;;6.20;1.95;;;21.10;64.10;;;;;;5046027;28;20125;-70
2022/06/10 08:38:57;;;;;;;4.00;1.50;;;21.20;63.10;;;;;;5044942;28;20646;-69
2022/06/10 08:42:03;;;;;;;4.65;1.48;;;21.30;63.10;;;;;;5047346;28;20035;-69
2022/06/10 08:44:35;;;;;;;4.57;1.70;;;21.30;63.00;;;;;;5044494;28;20074;-69
2022/06/10 08:47:30;;;;;;;4.13;1.50;;;21.30;62.70;;;;;;5041458;28;20052;-70
2022/06/10 08:50:06;;;;;;;3.30;1.50;;;21.60;62.90;;;;;;5049299;28;20533;-70
2022/06/10 08:52:44;;;;;;;6.43;1.65;;;21.80;62.30;;;;;;5048070;28;20021;-69
2022/06/10 08:55:34;;;;;;;3.90;1.30;;;21.90;61.60;;;;;;5045457;28;20099;-69
2022/06/10 08:58:08;;;;;;;6.75;1.92;;;22.20;61.70;;;;;;5047925;28;20490;-70
2022/06/10 09:00:38;;;;;;;4.93;1.58;;;22.30;60.80;;;;;;5048436;28;20029;-70
2022/06/10 09:03:16;;;;;;;4.53;1.40;;;22.30;60.20;;;;;;5046077;28;21818;-69
2022/06/10 09:05:53;;;;;;;2.55;1.25;;;22.10;60.30;;;;;;5045326;28;20019;-70
2022/06/10 09:08:44;;;;;;;6.18;1.52;;;22.30;60.80;;;;;;5045469;28;20029;-69
2022/06/10 09:11:30;;;;;;;6.47;2.20;;;22.60;60.10;;;;;;5046100;28;20479;-69
2022/06/10 09:14:16;;;;;;;4.93;1.38;;;22.40;58.70;;;;;;5046637;28;20284;-69
2022/06/10 09:16:58;;;;;;;4.88;1.40;;;22.50;59.40;;;;;;5060188;28;20037;-69
2022/06/10 09:19:30;;;;;;;;;;;22.50;59.20;;;;;;5042737;28;20079;-69
2022/06/10 09:22:02;;;;;;;4.40;1.40;;;22.40;58.60;;;;;;5048228;28;20370;-70
2022/06/10 09:24:34;;;;;;;;;;;22.50;58.90;;;;;;5046110;28;20537;-70
2022/06/10 09:27:14;;;;;;;4.97;1.65;;;22.50;58.60;;;;;;5047868;28;19919;-70
2022/06/10 09:29:40;;;;;;;5.20;1.52;;;22.50;58.20;;;;;;5045626;28;20139;-70
2022/06/10 09:32:13;;;;;;;4.53;1.52;;;22.50;58.60;;;;;;5047264;28;20110;-71
2022/06/10 09:35:06;;;;;;;3.83;1.30;;;22.40;58.20;;;;;;5046133;28;20114;-70
2022/06/10 09:37:45;;;;;;;6.90;1.65;;;22.50;58.60;;;;;;5047568;28;20064;-70
2022/06/10 09:40:38;;;;;;;3.38;1.27;;;22.50;58.30;;;;;;5047310;28;20558;-70
2022/06/10 09:43:43;;;;;;;6.20;1.70;;;22.60;58.30;;;;;;5049836;28;20057;-70
2022/06/10 09:46:40;;;;;;;3.90;1.30;;;22.60;57.90;;;;;;5065629;28;20028;-70
2022/06/10 09:49:29;;;;;;;6.85;1.73;;;22.60;58.20;;;;;;5050485;28;20025;-70
2022/06/10 09:52:15;;;;;;;5.85;2.13;;;22.70;57.70;;;;;;5050621;28;20142;-70
2022/06/10 09:54:58;;;;;;;5.57;2.00;;;22.50;57.20;;;;;;5050245;28;20029;-70
2022/06/10 09:57:42;;;;;;;5.60;1.80;;;22.50;57.50;;;;;;5047955;28;20021;-70
2022/06/10 10:00:19;;;;;;;6.65;1.80;;;22.60;57.80;;;;;;5051582;28;20474;-70
2022/06/10 10:02:48;;;;;;;7.68;1.98;;;22.80;57.50;;;;;;5052186;28;20029;-70
2022/06/10 10:05:33;;;;;;;6.70;1.90;;;22.70;56.80;;;;;;5045857;28;20084;-70
2022/06/10 10:08:16;;;;;;;4.38;1.48;;;22.80;56.90;;;;;;5048403;28;20104;-70
2022/06/10 10:10:55;;;;;;;5.78;2.10;;;22.90;57.30;;;;;;5051941;28;20033;-70
2022/06/10 10:13:37;;;;;;;5.03;1.63;;;23.00;56.90;;;;;;5063653;28;20021;-71
2022/06/10 10:16:24;;;;;;;6.53;1.88;;;23.20;56.80;;;;;;5056951;28;20037;-70
2022/06/10 10:19:28;;;;;;;6.35;1.90;;;23.20;56.10;;;;;;5050755;28;20059;-70
2022/06/10 10:22:25;;;;;;;4.90;1.80;;;23.10;56.30;;;;;;5049523;28;20037;-70
2022/06/10 10:24:50;;;;;;;7.57;2.13;;;23.00;56.60;;;;;;5049989;28;20501;-70
2022/06/10 10:27:22;;;;;;;4.93;1.60;;;23.00;56.50;;;;;;5049367;28;20025;-71
2022/06/10 10:29:56;;;;;;;4.63;1.63;;;23.00;56.90;;;;;;5048520;28;20032;-70
2022/06/10 10:32:28;;;;;;;6.28;1.95;;;23.20;56.90;;;;;;5050726;28;20021;-70
2022/06/10 10:35:03;;;;;;;5.53;1.75;;;23.20;56.50;;;;;;5050056;28;20025;-70
2022/06/10 10:37:31;;;;;;;3.90;1.73;;;23.40;56.40;;;;;;5050999;28;20390;-71
2022/06/10 10:40:18;;;;;;;6.65;2.03;;;23.40;56.50;;;;;;5042424;28;20029;-70
2022/06/10 10:42:47;;;;;;;4.22;1.33;;;23.40;56.00;;;;;;5048586;28;20107;-70
2022/06/10 10:45:27;;;;;;;5.07;1.50;;;23.40;56.30;;;;;;5047777;28;20518;-70
2022/06/10 10:47:56;;;;;;;6.07;1.70;;;23.60;56.30;;;;;;5051368;28;20441;-70
2022/06/10 10:50:30;;;;;;;6.32;2.05;;;23.80;56.10;;;;;;5051642;28;20021;-71
2022/06/10 10:52:56;;;;;;;4.90;1.70;;;23.70;55.90;;;;;;5054657;28;20029;-70
2022/06/10 10:55:36;;;;;;;5.18;1.80;;;23.80;55.60;;;;;;5053136;28;20437;-70
2022/06/10 10:58:15;;;;;;;5.22;1.70;;;23.90;55.30;;;;;;5057356;28;20113;-70
2022/06/10 11:00:43;;;;;;;5.38;1.33;;;24.10;55.60;;;;;;5048332;28;20021;-70
2022/06/10 11:03:27;;;;;;;6.20;1.80;;;24.30;55.60;;;;;;5049816;28;20029;-71
2022/06/10 11:05:53;;;;;;;6.57;2.00;;;24.50;55.30;;;;;;5049045;28;20036;-70
2022/06/10 11:08:35;;;;;;;8.85;2.50;;;24.50;54.80;;;;;;5048553;28;20025;-70
2022/06/10 11:11:03;;;;;;;;;;;24.40;54.40;;;;;;5049135;28;20634;-70
2022/06/10 11:14:17;;;;;;;4.35;1.73;;;24.30;55.00;;;;;;5081646;28;19909;-70
2022/06/10 11:16:55;;;;;;;3.13;1.45;;;24.30;55.20;;;;;;5048016;28;20021;-70
2022/06/10 11:19:28;;;;;;;4.40;1.80;;;24.20;55.50;;;;;;5048010;28;20024;-70
2022/06/10 11:22:08;;;;;;;7.55;1.90;;;24.20;55.60;;;;;;5048852;28;20479;-71
2022/06/10 11:24:37;;;;;;;5.13;1.80;;;24.00;55.60;;;;;;5049356;28;20021;-70
2022/06/10 11:27:23;;;;;;;6.63;1.92;;;23.90;55.80;;;;;;5049320;28;20078;-70
2022/06/10 11:30:10;;;;;;;5.70;2.00;;;23.80;56.00;;;;;;5047708;28;20108;-70
2022/06/10 11:32:44;;;;;;;4.22;1.63;;;23.70;56.20;;;;;;5049085;28;20039;-71
2022/06/10 11:35:33;;;;;;;3.20;1.35;;;23.60;56.50;;;;;;5048883;28;20020;-70
2022/06/10 11:38:18;;;;;;;3.38;1.30;;;23.50;56.70;;;;;;5046754;28;20174;-70
2022/06/10 11:40:46;;;;;;;10.63;2.95;;;23.50;56.90;;;;;;5049775;28;20044;-70
2022/06/10 11:43:12;;;;;;;5.22;2.28;;;23.40;56.30;;;;;;5049068;28;20033;-69
2022/06/10 11:45:47;;;;;;;6.15;1.70;;;23.20;56.70;;;;;;5046496;28;20024;-69
2022/06/10 11:48:33;;;;;;;6.07;1.70;;;23.20;57.10;;;;;;5047156;28;20058;-69
2022/06/10 11:51:06;;;;;;;4.13;1.70;;;23.30;57.20;;;;;;5037734;28;20024;-68
2022/06/10 11:53:49;;;;;;;4.50;1.50;;;23.40;57.10;;;;;;5045089;28;20029;-69
2022/06/10 11:59:45;;;;;;;5.00;1.90;;;23.70;56.90;;;;;;5044158;28;20123;-69
2022/06/10 12:02:38;;;;;;;6.10;1.83;;;23.80;56.50;;;;;;5048287;28;20021;-69
2022/06/10 12:05:15;;;;;;;6.22;2.40;;;23.90;56.30;;;;;;5043777;28;20086;-70
2022/06/10 12:08:02;;;;;;;8.07;2.47;;;24.10;55.80;;;;;;5045122;28;20048;-70
2022/06/10 12:10:45;;;;;;;5.55;1.92;;;24.20;55.60;;;;;;5048216;28;20112;-70
2022/06/10 12:13:13;;;;;;;6.72;2.25;;;24.60;55.60;;;;;;5046388;28;20036;-70
2022/06/10 12:15:47;;;;;;;6.15;2.28;;;24.60;54.80;;;;;;5047566;28;20028;-70
2022/06/10 12:18:16;;;;;;;6.60;2.67;;;24.70;55.00;;;;;;5046158;28;20073;-70
2022/06/10 12:20:48;;;;;;;6.40;2.40;;;24.70;54.60;;;;;;5047217;28;20021;-70
2022/06/10 12:23:22;;;;;;;5.20;1.80;;;24.70;54.60;;;;;;5048486;28;20036;-69
2022/06/10 12:26:23;;;;;;;6.80;2.00;;;25.00;54.80;;;;;;5046637;28;20021;-69
2022/06/10 12:29:10;;;;;;;5.15;1.70;;;25.00;54.00;;;;;;5038194;28;20111;-67
2022/06/10 12:31:58;;;;;;;6.50;2.10;;;25.00;54.20;;;;;;5047707;28;20494;-68
2022/06/10 12:34:49;;;;;;;4.43;1.70;;;24.80;53.80;;;;;;5044346;28;20033;-70
2022/06/10 12:37:41;;;;;;;4.78;2.13;;;24.70;54.40;;;;;;5046755;28;20078;-70
2022/06/10 12:40:27;;;;;;;5.30;2.13;;;24.70;54.50;;;;;;5045133;28;20406;-70
2022/06/10 12:43:26;;;;;;;3.55;1.60;;;24.70;54.60;;;;;;5061348;28;20025;-70
2022/06/10 12:45:56;;;;;;;3.42;1.67;;;24.80;55.10;;;;;;5038630;28;20078;-70
2022/06/10 12:48:26;;;;;;;5.68;1.85;;;24.80;55.00;;;;;;5077464;28;20027;-70
2022/06/10 12:51:04;;;;;;;5.00;2.35;;;24.90;55.20;;;;;;5048726;28;20100;-69
2022/06/10 12:53:39;;;;;;;5.95;1.90;;;25.00;54.70;;;;;;5044741;28;20033;-69
2022/06/10 12:56:27;;;;;;;5.38;1.90;;;25.10;54.40;;;;;;5046031;28;20025;-70
2022/06/10 12:59:08;;;;;;;2.70;1.58;;;25.20;54.40;;;;;;5048140;28;20029;-67
2022/06/10 13:01:34;;;;;;;4.80;1.70;;;25.20;54.40;;;;;;5045254;28;20037;-69
2022/06/10 13:04:04;;;;;;;3.28;1.75;;;25.30;54.40;;;;;;5045843;28;20482;-69
2022/06/10 13:06:31;;;;;;;4.00;1.60;;;25.50;53.90;;;;;;5043688;28;20021;-70
2022/06/10 13:09:22;;;;;;;5.07;1.90;;;25.50;53.90;;;;;;5045958;28;20562;-69
2022/06/10 13:12:21;;;;;;;4.57;1.70;;;25.50;53.70;;;;;;5044429;28;20104;-70
2022/06/10 13:15:11;;;;;;;3.55;1.50;;;25.40;53.60;;;;;;5045910;28;20380;-70
2022/06/10 13:18:13;;;;;;;3.72;1.60;;;25.30;53.80;;;;;;5045698;28;20541;-71
2022/06/10 13:20:39;;;;;;;6.55;2.22;;;25.40;54.00;;;;;;5046992;28;20039;-71
2022/06/10 13:23:36;;;;;;;6.03;2.00;;;25.30;53.60;;;;;;5046515;28;20025;-70
2022/06/10 13:26:04;;;;;;;4.63;1.80;;;25.20;54.00;;;;;;5051112;28;20025;-70
2022/06/10 13:28:34;;;;;;;3.08;1.50;;;25.40;54.00;;;;;;5050025;28;20029;-70
2022/06/10 13:31:14;;;;;;;3.63;1.70;;;25.60;53.60;;;;;;5048919;28;20020;-71